sensor_id;sensor_type;location;lat;lon;timestamp;pressure;altitude;pressure_sealevel;temperature;humidity
51249;BME280;39642;47.556;18.728;2023-03-03T00:00:13;99804.03;;;21.09;27.90
51249;BME280;39642;47.556;18.728;2023-03-03T00:02:39;99812.84;;;21.09;28.03
51249;BME280;39642;47.556;18.728;2023-03-03T00:05:05;99811.97;;;21.09;27.99
51249;BME280;39642;47.556;18.728;2023-03-03T00:07:31;99814.56;;;21.10;28.09
51249;BME280;39642;47.556;18.728;2023-03-03T00:09:57;99810.09;;;21.11;28.26
51249;BME280;39642;47.556;18.728;2023-03-03T00:12:26;99811.78;;;21.12;28.27
51249;BME280;39642;47.556;18.728;2023-03-03T00:14:53;99802.91;;;21.13;28.06
51249;BME280;39642;47.556;18.728;2023-03-03T00:17:29;99804.72;;;21.12;28.12
51249;BME280;39642;47.556;18.728;2023-03-03T00:19:56;99805.56;;;21.13;28.02
51249;BME280;39642;47.556;18.728;2023-03-03T00:22:30;99806.41;;;21.13;28.09
51249;BME280;39642;47.556;18.728;2023-03-03T00:25:35;99793.16;;;21.13;27.94
51249;BME280;39642;47.556;18.728;2023-03-03T00:30:46;99800.28;;;21.13;28.16
51249;BME280;39642;47.556;18.728;2023-03-03T00:33:32;99793.25;;;21.12;28.06
51249;BME280;39642;47.556;18.728;2023-03-03T00:38:47;99792.41;;;21.11;28.28
51249;BME280;39642;47.556;18.728;2023-03-03T00:41:22;99785.31;;;21.12;28.28
51249;BME280;39642;47.556;18.728;2023-03-03T00:43:49;99790.59;;;21.12;28.33
51249;BME280;39642;47.556;18.728;2023-03-03T00:46:21;99786.28;;;21.11;28.50
51249;BME280;39642;47.556;18.728;2023-03-03T00:48:48;99786.19;;;21.12;28.30
51249;BME280;39642;47.556;18.728;2023-03-03T00:51:27;99788.84;;;21.12;28.42
51249;BME280;39642;47.556;18.728;2023-03-03T00:53:54;99782.66;;;21.12;28.28
51249;BME280;39642;47.556;18.728;2023-03-03T00:56:21;99785.31;;;21.12;28.35
51249;BME280;39642;47.556;18.728;2023-03-03T00:58:47;99771.22;;;21.11;28.03
51249;BME280;39642;47.556;18.728;2023-03-03T01:01:14;99775.69;;;21.11;28.08
51249;BME280;39642;47.556;18.728;2023-03-03T01:03:40;99774.84;;;21.10;28.08
51249;BME280;39642;47.556;18.728;2023-03-03T01:06:06;99773.13;;;21.09;28.26
51249;BME280;39642;47.556;18.728;2023-03-03T01:08:32;99774.91;;;21.09;28.03
51249;BME280;39642;47.556;18.728;2023-03-03T01:11:03;99769.62;;;21.09;27.89
51249;BME280;39642;47.556;18.728;2023-03-03T01:13:32;99771.34;;;21.10;27.73
51249;BME280;39642;47.556;18.728;2023-03-03T01:15:59;99766.91;;;21.10;27.89
51249;BME280;39642;47.556;18.728;2023-03-03T01:18:26;99760.75;;;21.10;27.96
51249;BME280;39642;47.556;18.728;2023-03-03T01:20:52;99765.09;;;21.11;27.91
51249;BME280;39642;47.556;18.728;2023-03-03T01:23:19;99761.59;;;21.10;27.92
51249;BME280;39642;47.556;18.728;2023-03-03T01:25:45;99758.84;;;21.12;27.75
51249;BME280;39642;47.556;18.728;2023-03-03T01:28:11;99758.84;;;21.12;27.63
51249;BME280;39642;47.556;18.728;2023-03-03T01:30:37;99754.41;;;21.12;27.81
51249;BME280;39642;47.556;18.728;2023-03-03T01:33:03;99755.25;;;21.13;28.31
51249;BME280;39642;47.556;18.728;2023-03-03T01:35:29;99748.16;;;21.13;27.97
51249;BME280;39642;47.556;18.728;2023-03-03T01:37:55;99752.59;;;21.13;27.82
51249;BME280;39642;47.556;18.728;2023-03-03T01:40:24;99745.50;;;21.13;27.84
51249;BME280;39642;47.556;18.728;2023-03-03T01:42:51;99743.81;;;21.12;27.86
51249;BME280;39642;47.556;18.728;2023-03-03T01:45:28;99739.38;;;21.13;27.97
51249;BME280;39642;47.556;18.728;2023-03-03T01:48:00;99742.03;;;21.13;27.86
51249;BME280;39642;47.556;18.728;2023-03-03T01:52:58;99739.38;;;21.13;27.67
51249;BME280;39642;47.556;18.728;2023-03-03T01:55:33;99735.88;;;21.12;27.75
51249;BME280;39642;47.556;18.728;2023-03-03T01:58:07;99731.50;;;21.11;27.89
51249;BME280;39642;47.556;18.728;2023-03-03T02:00:37;99732.47;;;21.10;27.85
51249;BME280;39642;47.556;18.728;2023-03-03T02:03:04;99738.62;;;21.11;28.14
51249;BME280;39642;47.556;18.728;2023-03-03T02:05:31;99727.19;;;21.10;27.96
51249;BME280;39642;47.556;18.728;2023-03-03T02:07:57;99732.47;;;21.10;27.94
51249;BME280;39642;47.556;18.728;2023-03-03T02:10:23;99734.28;;;21.10;27.91
51249;BME280;39642;47.556;18.728;2023-03-03T02:12:51;99733.41;;;21.09;27.64
51249;BME280;39642;47.556;18.728;2023-03-03T02:15:22;99733.41;;;21.09;27.73
51249;BME280;39642;47.556;18.728;2023-03-03T02:17:51;99729.91;;;21.09;27.71
51249;BME280;39642;47.556;18.728;2023-03-03T02:26:08;99725.47;;;21.09;27.62
51249;BME280;39642;47.556;18.728;2023-03-03T02:28:35;99726.34;;;21.10;27.70
51249;BME280;39642;47.556;18.728;2023-03-03T02:31:04;99720.09;;;21.11;27.60
51249;BME280;39642;47.556;18.728;2023-03-03T02:33:30;99726.22;;;21.11;27.53
51249;BME280;39642;47.556;18.728;2023-03-03T02:35:56;99719.13;;;21.12;27.57
51249;BME280;39642;47.556;18.728;2023-03-03T02:44:12;99725.19;;;21.14;27.62
51249;BME280;39642;47.556;18.728;2023-03-03T02:46:41;99720.84;;;21.13;27.71
51249;BME280;39642;47.556;18.728;2023-03-03T02:49:09;99715.53;;;21.13;27.69
51249;BME280;39642;47.556;18.728;2023-03-03T02:51:35;99711.09;;;21.13;27.65
51249;BME280;39642;47.556;18.728;2023-03-03T02:54:02;99708.44;;;21.13;27.71
51249;BME280;39642;47.556;18.728;2023-03-03T02:56:28;99703.16;;;21.13;27.64
51249;BME280;39642;47.556;18.728;2023-03-03T02:58:54;99708.44;;;21.13;27.69
51249;BME280;39642;47.556;18.728;2023-03-03T03:01:21;99712.91;;;21.13;27.71
51249;BME280;39642;47.556;18.728;2023-03-03T03:03:47;99695.22;;;21.13;27.75
51249;BME280;39642;47.556;18.728;2023-03-03T03:06:13;99710.25;;;21.13;27.75
51249;BME280;39642;47.556;18.728;2023-03-03T03:08:39;99693.53;;;21.12;28.11
51249;BME280;39642;47.556;18.728;2023-03-03T03:11:05;99699.66;;;21.13;27.68
51249;BME280;39642;47.556;18.728;2023-03-03T03:13:31;99696.16;;;21.12;27.75
51249;BME280;39642;47.556;18.728;2023-03-03T03:15:58;99694.44;;;21.11;27.84
51249;BME280;39642;47.556;18.728;2023-03-03T03:18:24;99690.97;;;21.11;28.05
51249;BME280;39642;47.556;18.728;2023-03-03T03:20:50;99685.66;;;21.11;27.91
51249;BME280;39642;47.556;18.728;2023-03-03T03:23:16;99688.41;;;21.09;27.85
51249;BME280;39642;47.556;18.728;2023-03-03T03:25:42;99683.09;;;21.09;27.78
51249;BME280;39642;47.556;18.728;2023-03-03T03:28:12;99681.31;;;21.10;27.75
51249;BME280;39642;47.556;18.728;2023-03-03T03:30:38;99685.75;;;21.09;27.67
51249;BME280;39642;47.556;18.728;2023-03-03T03:33:04;99684.06;;;21.08;27.68
51249;BME280;39642;47.556;18.728;2023-03-03T03:35:32;99684.81;;;21.10;27.65
51249;BME280;39642;47.556;18.728;2023-03-03T03:37:58;99681.31;;;21.10;27.69
51249;BME280;39642;47.556;18.728;2023-03-03T03:40:24;99680.37;;;21.11;27.73
51249;BME280;39642;47.556;18.728;2023-03-03T03:42:52;99674.03;;;21.13;27.76
51249;BME280;39642;47.556;18.728;2023-03-03T03:45:18;99675.81;;;21.13;27.68
51249;BME280;39642;47.556;18.728;2023-03-03T03:47:44;99671.38;;;21.13;27.68
51249;BME280;39642;47.556;18.728;2023-03-03T03:50:10;99670.44;;;21.14;27.51
51249;BME280;39642;47.556;18.728;2023-03-03T03:52:36;99673.09;;;21.14;27.67
51249;BME280;39642;47.556;18.728;2023-03-03T03:55:03;99670.44;;;21.14;27.69
51249;BME280;39642;47.556;18.728;2023-03-03T03:57:29;99666.00;;;21.15;27.76
51249;BME280;39642;47.556;18.728;2023-03-03T03:59:55;99660.69;;;21.15;27.74
51249;BME280;39642;47.556;18.728;2023-03-03T04:02:21;99660.69;;;21.15;27.61
51249;BME280;39642;47.556;18.728;2023-03-03T04:04:47;99663.34;;;21.15;27.73
51249;BME280;39642;47.556;18.728;2023-03-03T04:07:13;99657.22;;;21.14;27.83
51249;BME280;39642;47.556;18.728;2023-03-03T04:09:38;99660.69;;;21.15;27.73
51249;BME280;39642;47.556;18.728;2023-03-03T04:12:04;99662.50;;;21.14;27.83
51249;BME280;39642;47.556;18.728;2023-03-03T04:14:30;99667.81;;;21.14;27.74
51249;BME280;39642;47.556;18.728;2023-03-03T04:16:56;99665.16;;;21.14;27.69
51249;BME280;39642;47.556;18.728;2023-03-03T04:19:22;99665.16;;;21.14;28.08
51249;BME280;39642;47.556;18.728;2023-03-03T04:21:48;99663.34;;;21.15;27.70
51249;BME280;39642;47.556;18.728;2023-03-03T04:24:15;99664.28;;;21.14;28.12
51249;BME280;39642;47.556;18.728;2023-03-03T04:26:41;99661.62;;;21.14;27.79
51249;BME280;39642;47.556;18.728;2023-03-03T04:29:07;99665.25;;;21.13;27.87
51249;BME280;39642;47.556;18.728;2023-03-03T04:31:33;99665.25;;;21.13;27.90
51249;BME280;39642;47.556;18.728;2023-03-03T04:33:58;99660.03;;;21.11;27.66
51249;BME280;39642;47.556;18.728;2023-03-03T04:36:24;99662.69;;;21.11;27.94
51249;BME280;39642;47.556;18.728;2023-03-03T04:38:50;99659.19;;;21.11;27.75
51249;BME280;39642;47.556;18.728;2023-03-03T04:41:17;99653.06;;;21.10;27.80
51249;BME280;39642;47.556;18.728;2023-03-03T04:43:43;99653.97;;;21.09;27.67
51249;BME280;39642;47.556;18.728;2023-03-03T04:46:08;99659.28;;;21.09;28.05
51249;BME280;39642;47.556;18.728;2023-03-03T04:48:34;99653.13;;;21.09;27.89
51249;BME280;39642;47.556;18.728;2023-03-03T04:51:00;99653.97;;;21.09;27.95
51249;BME280;39642;47.556;18.728;2023-03-03T04:53:26;99653.22;;;21.07;27.85
51249;BME280;39642;47.556;18.728;2023-03-03T04:55:52;99649.72;;;21.07;27.90
51249;BME280;39642;47.556;18.728;2023-03-03T04:58:19;99655.88;;;21.07;27.82
51249;BME280;39642;47.556;18.728;2023-03-03T05:00:46;99655.88;;;21.07;28.08
51249;BME280;39642;47.556;18.728;2023-03-03T05:03:12;99659.47;;;21.06;27.69
51249;BME280;39642;47.556;18.728;2023-03-03T05:05:39;99657.75;;;21.05;27.92
51249;BME280;39642;47.556;18.728;2023-03-03T05:08:05;99659.47;;;21.06;27.71
51249;BME280;39642;47.556;18.728;2023-03-03T05:10:31;99662.97;;;21.07;27.71
51249;BME280;39642;47.556;18.728;2023-03-03T05:12:57;99656.84;;;21.06;27.63
51249;BME280;39642;47.556;18.728;2023-03-03T05:15:23;99656.00;;;21.06;27.50
51249;BME280;39642;47.556;18.728;2023-03-03T05:17:49;99652.47;;;21.05;27.51
51249;BME280;39642;47.556;18.728;2023-03-03T05:20:18;99650.69;;;21.06;27.91
51249;BME280;39642;47.556;18.728;2023-03-03T05:22:43;99653.22;;;21.07;27.59
51249;BME280;39642;47.556;18.728;2023-03-03T05:25:09;99651.53;;;21.06;27.36
51249;BME280;39642;47.556;18.728;2023-03-03T05:27:37;99653.22;;;21.07;27.38
51249;BME280;39642;47.556;18.728;2023-03-03T05:30:03;99658.44;;;21.09;27.30
51249;BME280;39642;47.556;18.728;2023-03-03T05:32:29;99660.16;;;21.10;27.39
51249;BME280;39642;47.556;18.728;2023-03-03T05:34:55;99655.69;;;21.10;27.23
51249;BME280;39642;47.556;18.728;2023-03-03T05:37:21;99650.41;;;21.10;27.39
51249;BME280;39642;47.556;18.728;2023-03-03T05:39:49;99659.94;;;21.13;27.40
51249;BME280;39642;47.556;18.728;2023-03-03T05:42:15;99663.44;;;21.13;27.48
51249;BME280;39642;47.556;18.728;2023-03-03T05:44:41;99667.81;;;21.14;27.60
51249;BME280;39642;47.556;18.728;2023-03-03T05:47:07;99665.03;;;21.16;27.92
51249;BME280;39642;47.556;18.728;2023-03-03T05:49:33;99672.13;;;21.15;28.92
51249;BME280;39642;47.556;18.728;2023-03-03T05:51:59;99673.72;;;21.18;30.25
51249;BME280;39642;47.556;18.728;2023-03-03T05:54:25;99677.91;;;21.22;29.51
51249;BME280;39642;47.556;18.728;2023-03-03T05:56:50;99671.75;;;21.21;29.44
51249;BME280;39642;47.556;18.728;2023-03-03T05:59:16;99674.28;;;21.23;28.87
51249;BME280;39642;47.556;18.728;2023-03-03T06:01:42;99675.25;;;21.22;28.79
51249;BME280;39642;47.556;18.728;2023-03-03T06:04:08;99676.94;;;21.23;28.95
51249;BME280;39642;47.556;18.728;2023-03-03T06:06:34;99682.22;;;21.23;29.06
51249;BME280;39642;47.556;18.728;2023-03-03T06:09:00;99682.16;;;21.25;30.10
51249;BME280;39642;47.556;18.728;2023-03-03T06:11:26;99668.06;;;21.24;29.19
51249;BME280;39642;47.556;18.728;2023-03-03T06:13:52;99680.34;;;21.25;29.26
51249;BME280;39642;47.556;18.728;2023-03-03T06:16:17;99679.50;;;21.25;29.15
51249;BME280;39642;47.556;18.728;2023-03-03T06:18:43;99677.81;;;21.24;29.86
51249;BME280;39642;47.556;18.728;2023-03-03T06:21:09;99679.56;;;21.23;30.10
51249;BME280;39642;47.556;18.728;2023-03-03T06:23:35;99680.44;;;21.24;30.31
51249;BME280;39642;47.556;18.728;2023-03-03T06:26:01;99679.41;;;21.26;30.74
51249;BME280;39642;47.556;18.728;2023-03-03T06:28:27;99679.28;;;21.28;30.78
51249;BME280;39642;47.556;18.728;2023-03-03T06:30:54;99678.34;;;21.29;31.28
51249;BME280;39642;47.556;18.728;2023-03-03T06:33:20;99684.59;;;21.28;30.72
51249;BME280;39642;47.556;18.728;2023-03-03T06:35:51;99687.22;;;21.28;31.47
51249;BME280;39642;47.556;18.728;2023-03-03T06:38:17;99686.50;;;21.26;31.02
51249;BME280;39642;47.556;18.728;2023-03-03T06:40:44;99694.25;;;21.29;31.21
51249;BME280;39642;47.556;18.728;2023-03-03T06:43:11;99695.94;;;21.30;30.79
51249;BME280;39642;47.556;18.728;2023-03-03T06:45:37;99698.69;;;21.28;30.67
51249;BME280;39642;47.556;18.728;2023-03-03T06:48:03;99698.78;;;21.27;30.52
51249;BME280;39642;47.556;18.728;2023-03-03T06:50:29;99699.84;;;21.24;30.43
51249;BME280;39642;47.556;18.728;2023-03-03T06:53:13;99699.00;;;21.24;30.23
51249;BME280;39642;47.556;18.728;2023-03-03T06:55:39;99706.19;;;21.21;30.04
51249;BME280;39642;47.556;18.728;2023-03-03T06:58:25;99702.00;;;21.17;30.14
51249;BME280;39642;47.556;18.728;2023-03-03T07:00:56;99708.25;;;21.16;30.45
51249;BME280;39642;47.556;18.728;2023-03-03T07:03:24;99706.56;;;21.15;29.76
51249;BME280;39642;47.556;18.728;2023-03-03T07:05:52;99709.28;;;21.14;30.30
51249;BME280;39642;47.556;18.728;2023-03-03T07:08:20;99713.66;;;21.15;30.13
51249;BME280;39642;47.556;18.728;2023-03-03T07:10:48;99713.53;;;21.16;29.88
51249;BME280;39642;47.556;18.728;2023-03-03T07:13:28;99717.91;;;21.17;29.83
51249;BME280;39642;47.556;18.728;2023-03-03T07:15:56;99715.06;;;21.20;29.78
51249;BME280;39642;47.556;18.728;2023-03-03T07:18:34;99712.31;;;21.22;29.75
51249;BME280;39642;47.556;18.728;2023-03-03T07:21:11;99722.91;;;21.22;30.02
51249;BME280;39642;47.556;18.728;2023-03-03T07:23:39;99732.47;;;21.25;29.86
51249;BME280;39642;47.556;18.728;2023-03-03T07:26:16;99732.47;;;21.25;29.93
51249;BME280;39642;47.556;18.728;2023-03-03T07:28:46;99737.56;;;21.28;30.22
51249;BME280;39642;47.556;18.728;2023-03-03T07:31:38;99737.56;;;21.28;30.27
51249;BME280;39642;47.556;18.728;2023-03-03T07:34:18;99731.31;;;21.29;30.51
51249;BME280;39642;47.556;18.728;2023-03-03T07:49:21;99749.37;;;21.92;30.00
51249;BME280;39642;47.556;18.728;2023-03-03T07:51:53;99749.37;;;21.92;30.00
51249;BME280;39642;47.556;18.728;2023-03-03T07:54:29;99737.72;;;21.39;30.87
51249;BME280;39642;47.556;18.728;2023-03-03T07:57:04;99737.66;;;21.40;31.06
51249;BME280;39642;47.556;18.728;2023-03-03T07:59:34;99741.91;;;21.43;31.32
51249;BME280;39642;47.556;18.728;2023-03-03T08:02:01;99738.44;;;21.42;31.36
51249;BME280;39642;47.556;18.728;2023-03-03T08:04:40;99736.63;;;21.43;31.45
51249;BME280;39642;47.556;18.728;2023-03-03T08:07:16;99733.97;;;21.43;31.69
51249;BME280;39642;47.556;18.728;2023-03-03T08:09:43;99730.41;;;21.44;31.46
51249;BME280;39642;47.556;18.728;2023-03-03T08:15:13;99745.31;;;21.45;31.66
51249;BME280;39642;47.556;18.728;2023-03-03T08:17:41;99740.88;;;21.46;31.88
51249;BME280;39642;47.556;18.728;2023-03-03T08:22:53;99745.44;;;21.44;32.50
51249;BME280;39642;47.556;18.728;2023-03-03T08:25:20;99741.00;;;21.44;32.61
51249;BME280;39642;47.556;18.728;2023-03-03T08:27:45;99739.19;;;21.45;32.71
51249;BME280;39642;47.556;18.728;2023-03-03T08:30:12;99739.19;;;21.45;32.91
51249;BME280;39642;47.556;18.728;2023-03-03T08:32:38;99744.47;;;21.45;33.02
51249;BME280;39642;47.556;18.728;2023-03-03T08:35:04;99742.78;;;21.44;33.15
51249;BME280;39642;47.556;18.728;2023-03-03T08:37:30;99744.56;;;21.43;33.30
51249;BME280;39642;47.556;18.728;2023-03-03T08:39:56;99749.03;;;21.42;33.33
51249;BME280;39642;47.556;18.728;2023-03-03T08:42:23;99749.87;;;21.43;33.39
51249;BME280;39642;47.556;18.728;2023-03-03T08:44:49;99752.69;;;21.40;32.17
51249;BME280;39642;47.556;18.728;2023-03-03T08:47:15;99753.47;;;21.42;33.08
51249;BME280;39642;47.556;18.728;2023-03-03T08:49:40;99750.75;;;21.44;32.91
51249;BME280;39642;47.556;18.728;2023-03-03T08:52:06;99746.38;;;21.42;33.47
51249;BME280;39642;47.556;18.728;2023-03-03T08:54:32;99744.56;;;21.43;33.58
51249;BME280;39642;47.556;18.728;2023-03-03T08:56:58;99747.97;;;21.45;34.01
51249;BME280;39642;47.556;18.728;2023-03-03T08:59:24;99750.44;;;21.48;33.69
51249;BME280;39642;47.556;18.728;2023-03-03T09:01:50;99742.50;;;21.48;33.37
51249;BME280;39642;47.556;18.728;2023-03-03T09:04:16;99748.34;;;21.53;34.04
51249;BME280;39642;47.556;18.728;2023-03-03T09:06:42;99742.22;;;21.53;34.67
51249;BME280;39642;47.556;18.728;2023-03-03T09:09:08;99747.50;;;21.53;34.60
51249;BME280;39642;47.556;18.728;2023-03-03T09:11:34;99744.88;;;21.53;34.32
51249;BME280;39642;47.556;18.728;2023-03-03T09:14:11;99757.22;;;21.52;34.11
51249;BME280;39642;47.556;18.728;2023-03-03T09:16:40;99748.53;;;21.50;34.62
51249;BME280;39642;47.556;18.728;2023-03-03T09:19:25;99750.44;;;21.48;34.96
51249;BME280;39642;47.556;18.728;2023-03-03T09:21:54;99733.69;;;21.48;35.04
51249;BME280;39642;47.556;18.728;2023-03-03T09:24:28;99743.44;;;21.47;35.21
51249;BME280;39642;47.556;18.728;2023-03-03T09:26:58;99733.69;;;21.48;34.69
51249;BME280;39642;47.556;18.728;2023-03-03T09:29:29;99743.34;;;21.49;35.25
51249;BME280;39642;47.556;18.728;2023-03-03T09:31:59;99744.28;;;21.48;35.64
51249;BME280;39642;47.556;18.728;2023-03-03T09:37:17;99737.22;;;21.48;35.31
51249;BME280;39642;47.556;18.728;2023-03-03T09:39:49;99743.22;;;21.50;35.28
51249;BME280;39642;47.556;18.728;2023-03-03T09:42:31;99742.97;;;21.55;35.17
51249;BME280;39642;47.556;18.728;2023-03-03T09:48:01;99742.66;;;21.59;33.91
51249;BME280;39642;47.556;18.728;2023-03-03T09:53:52;99734.34;;;21.51;33.04
51249;BME280;39642;47.556;18.728;2023-03-03T09:56:29;99741.75;;;21.46;33.18
51249;BME280;39642;47.556;18.728;2023-03-03T09:59:06;99741.06;;;21.42;33.03
51249;BME280;39642;47.556;18.728;2023-03-03T10:14:56;99721.09;;;21.37;33.67
51249;BME280;39642;47.556;18.728;2023-03-03T10:17:44;99726.41;;;21.37;33.59
51249;BME280;39642;47.556;18.728;2023-03-03T10:27:10;99728.19;;;21.36;35.69
51249;BME280;39642;47.556;18.728;2023-03-03T10:40:49;99712.03;;;21.41;34.03
51249;BME280;39642;47.556;18.728;2023-03-03T10:43:41;99711.09;;;21.42;34.12
51249;BME280;39642;47.556;18.728;2023-03-03T10:46:20;99703.41;;;21.37;33.87
51249;BME280;39642;47.556;18.728;2023-03-03T10:57:29;99704.25;;;21.38;33.52
51249;BME280;39642;47.556;18.728;2023-03-03T11:00:35;99699.03;;;21.36;34.12
51249;BME280;39642;47.556;18.728;2023-03-03T11:05:54;99682.03;;;21.40;33.20
51249;BME280;39642;47.556;18.728;2023-03-03T11:08:28;99685.38;;;21.44;33.29
51249;BME280;39642;47.556;18.728;2023-03-03T11:11:12;99678.16;;;21.46;33.17
51249;BME280;39642;47.556;18.728;2023-03-03T11:13:49;99672.87;;;21.46;33.28
51249;BME280;39642;47.556;18.728;2023-03-03T11:24:49;99644.78;;;21.44;33.32
51249;BME280;39642;47.556;18.728;2023-03-03T11:30:27;99650.25;;;21.40;33.46
51249;BME280;39642;47.556;18.728;2023-03-03T11:35:58;99650.53;;;21.36;33.03
51249;BME280;39642;47.556;18.728;2023-03-03T11:39:09;99645.44;;;21.33;32.74
51249;BME280;39642;47.556;18.728;2023-03-03T11:41:32;99639.31;;;21.18;33.05
51249;BME280;39642;47.556;18.728;2023-03-03T11:46:47;99640.28;;;21.17;34.44
51249;BME280;39642;47.556;18.728;2023-03-03T11:51:57;99631.19;;;21.21;34.26
51249;BME280;39642;47.556;18.728;2023-03-03T11:54:59;99631.81;;;21.25;34.25
51249;BME280;39642;47.556;18.728;2023-03-03T12:00:02;99623.59;;;21.29;34.00
51249;BME280;39642;47.556;18.728;2023-03-03T12:05:08;99622.84;;;21.27;33.95
51249;BME280;39642;47.556;18.728;2023-03-03T12:07:45;99619.56;;;21.24;34.28
51249;BME280;39642;47.556;18.728;2023-03-03T12:12:52;99617.06;;;21.20;33.91
51249;BME280;39642;47.556;18.728;2023-03-03T12:18:31;99606.31;;;21.24;33.90
51249;BME280;39642;47.556;18.728;2023-03-03T12:21:26;99608.75;;;21.27;33.88
51249;BME280;39642;47.556;18.728;2023-03-03T12:29:45;99599.44;;;21.34;33.92
51249;BME280;39642;47.556;18.728;2023-03-03T12:32:26;99605.41;;;21.37;33.46
51249;BME280;39642;47.556;18.728;2023-03-03T12:37:56;99603.16;;;21.31;34.43
51249;BME280;39642;47.556;18.728;2023-03-03T12:40:29;99604.13;;;21.30;34.43
51249;BME280;39642;47.556;18.728;2023-03-03T12:48:32;99598.91;;;21.29;35.04
51249;BME280;39642;47.556;18.728;2023-03-03T12:53:48;99604.00;;;21.32;34.73
51249;BME280;39642;47.556;18.728;2023-03-03T12:56:56;99610.25;;;21.31;34.71
51249;BME280;39642;47.556;18.728;2023-03-03T13:02:07;99596.16;;;21.30;34.35
51249;BME280;39642;47.556;18.728;2023-03-03T13:04:44;99598.16;;;21.27;34.33
51249;BME280;39642;47.556;18.728;2023-03-03T13:07:15;99593.06;;;21.24;34.52
51249;BME280;39642;47.556;18.728;2023-03-03T13:15:26;99592.31;;;21.21;34.83
51249;BME280;39642;47.556;18.728;2023-03-03T13:18:14;99594.22;;;21.19;35.08
51249;BME280;39642;47.556;18.728;2023-03-03T13:25:54;99586.06;;;21.23;34.98
51249;BME280;39642;47.556;18.728;2023-03-03T13:28:42;99585.12;;;21.24;35.77
51249;BME280;39642;47.556;18.728;2023-03-03T13:31:18;99585.88;;;21.26;35.75
51249;BME280;39642;47.556;18.728;2023-03-03T13:33:55;99576.22;;;21.25;35.40
51249;BME280;39642;47.556;18.728;2023-03-03T13:36:30;99570.91;;;21.25;35.47
51249;BME280;39642;47.556;18.728;2023-03-03T13:39:13;99564.69;;;21.26;35.19
51249;BME280;39642;47.556;18.728;2023-03-03T13:41:50;99571.47;;;21.30;35.24
51249;BME280;39642;47.556;18.728;2023-03-03T13:49:58;99567.50;;;21.37;35.33
51249;BME280;39642;47.556;18.728;2023-03-03T13:52:28;99556.69;;;21.40;36.09
51249;BME280;39642;47.556;18.728;2023-03-03T13:55:31;99560.03;;;21.44;36.43
51249;BME280;39642;47.556;18.728;2023-03-03T13:58:14;99560.75;;;21.46;36.92
51249;BME280;39642;47.556;18.728;2023-03-03T14:00:59;99561.63;;;21.46;37.35
51249;BME280;39642;47.556;18.728;2023-03-03T14:03:53;99565.84;;;21.49;37.71
51249;BME280;39642;47.556;18.728;2023-03-03T14:06:28;99565.94;;;21.47;38.35
51249;BME280;39642;47.556;18.728;2023-03-03T14:11:55;99558.09;;;21.46;39.08
51249;BME280;39642;47.556;18.728;2023-03-03T14:17:03;99557.75;;;21.37;38.50
51249;BME280;39642;47.556;18.728;2023-03-03T14:19:39;99549.88;;;21.36;39.41
51249;BME280;39642;47.556;18.728;2023-03-03T14:22:20;99549.97;;;21.34;39.95
51249;BME280;39642;47.556;18.728;2023-03-03T14:25:17;99549.25;;;21.32;39.30
51249;BME280;39642;47.556;18.728;2023-03-03T14:33:15;99545.94;;;21.29;39.83
51249;BME280;39642;47.556;18.728;2023-03-03T14:38:36;99544.97;;;21.30;37.87
51249;BME280;39642;47.556;18.728;2023-03-03T14:41:14;99544.97;;;21.30;38.56
51249;BME280;39642;47.556;18.728;2023-03-03T14:43:43;99548.50;;;21.30;38.15
51249;BME280;39642;47.556;18.728;2023-03-03T14:46:29;99541.41;;;21.31;37.87
51249;BME280;39642;47.556;18.728;2023-03-03T14:48:59;99539.59;;;21.31;36.90
51249;BME280;39642;47.556;18.728;2023-03-03T14:51:29;99543.00;;;21.33;37.20
51249;BME280;39642;47.556;18.728;2023-03-03T14:53:56;99542.16;;;21.33;37.20
51249;BME280;39642;47.556;18.728;2023-03-03T14:56:27;99542.03;;;21.34;37.33
51249;BME280;39642;47.556;18.728;2023-03-03T14:59:20;99538.44;;;21.35;37.19
51249;BME280;39642;47.556;18.728;2023-03-03T15:04:43;99547.22;;;21.36;39.34
51249;BME280;39642;47.556;18.728;2023-03-03T15:07:31;99548.28;;;21.33;40.53
51249;BME280;39642;47.556;18.728;2023-03-03T15:09:58;99545.84;;;21.30;41.08
51249;BME280;39642;47.556;18.728;2023-03-03T15:12:38;99554.81;;;21.28;40.67
51249;BME280;39642;47.556;18.728;2023-03-03T15:23:31;99559.97;;;21.16;36.90
51249;BME280;39642;47.556;18.728;2023-03-03T15:34:56;99554.25;;;21.10;37.37
51249;BME280;39642;47.556;18.728;2023-03-03T15:37:52;99556.03;;;21.09;37.32
51249;BME280;39642;47.556;18.728;2023-03-03T15:42:56;99569.16;;;21.11;36.43
51249;BME280;39642;47.556;18.728;2023-03-03T15:45:33;99559.34;;;21.13;36.00
51249;BME280;39642;47.556;18.728;2023-03-03T15:48:09;99561.13;;;21.12;35.14
51249;BME280;39642;47.556;18.728;2023-03-03T15:54:16;99571.72;;;21.12;33.53
51249;BME280;39642;47.556;18.728;2023-03-03T15:57:04;99570.00;;;21.11;33.99
51249;BME280;39642;47.556;18.728;2023-03-03T16:02:48;99565.69;;;21.10;33.83
51249;BME280;39642;47.556;18.728;2023-03-03T16:05:33;99570.97;;;21.10;33.84
51249;BME280;39642;47.556;18.728;2023-03-03T16:10:46;99571.91;;;21.09;33.02
51249;BME280;39642;47.556;18.728;2023-03-03T16:20:58;99582.72;;;21.06;31.40
51249;BME280;39642;47.556;18.728;2023-03-03T16:23:34;99589.81;;;21.06;32.06
51249;BME280;39642;47.556;18.728;2023-03-03T16:26:15;99589.69;;;21.07;32.43
51249;BME280;39642;47.556;18.728;2023-03-03T16:28:51;99586.19;;;21.07;30.43
51249;BME280;39642;47.556;18.728;2023-03-03T16:31:24;99587.16;;;21.06;30.89
51249;BME280;39642;47.556;18.728;2023-03-03T16:37:06;99592.34;;;21.07;30.64
51249;BME280;39642;47.556;18.728;2023-03-03T16:39:47;99598.50;;;21.08;30.25
51249;BME280;39642;47.556;18.728;2023-03-03T16:42:25;99600.41;;;21.06;29.78